Vilnius International Airport

Airport
ICAO code: 
EYVI
IATA Code: 
VNTO
Summary
ICAO Region: 
EUR
Territory: 
Location: 
Porubanek, Vilnius District
Serving: 
Vilnius
Elevation: 
646 ft
Coordinates: 
Aerial View: 
54° 38' 12.984" N, 25° 17' 16.008" E
Metar
Observation
EYVI 291250Z 36006KT 8000 -RASN OVC003 00/00 Q0986 NOSIG
Station
Vilnius
Date/Time
2021-11-29 12:50:00
Wind direction
360°
Wind speed
06 kts
Lowest cloud amount
overcast
Temperature
0°C
Dew point
0°C
Humidity
100%
QNH
986 hPa
Weather condition
n/a

Vilnius Airport is the largest civil airport in Lithuania. It is located 5.9 km south of Vilnius, the capital of Lithuania.

Climatology

Humid continental climate (Köppen climate classification Dfb)

Runways

Designator Length Width Surface Rops
2/20 2515 50 ASP Yes/Yes
Airport map: 
Aerial View: 

SKYbrary Partners:

Safety knowledge contributed by: